createdAt,value
2022-11-29T00:02:37.647Z,30.52
2022-11-29T00:05:41.263Z,28.52
2022-11-29T00:08:44.740Z,28.52
2022-11-29T00:12:06.498Z,28.12
2022-11-29T00:15:09.450Z,28.58
2022-11-29T00:18:12.738Z,30.70
2022-11-29T00:21:15.620Z,27.70
2022-11-29T00:24:18.951Z,27.90
2022-11-29T00:27:21.825Z,28.60
2022-11-29T00:30:25.465Z,27.55
2022-11-29T00:33:28.456Z,28.87
2022-11-29T00:36:31.676Z,29.12
2022-11-29T00:39:35.145Z,25.77
2022-11-29T00:42:38.149Z,27.20
2022-11-29T00:45:41.903Z,29.25
2022-11-29T00:48:45.356Z,33.13
2022-11-29T00:51:48.216Z,31.95
2022-11-29T00:54:51.478Z,30.77
2022-11-29T00:57:54.426Z,28.83
2022-11-29T01:00:58.051Z,27.37
2022-11-29T01:04:02.069Z,24.35
2022-11-29T01:07:05.166Z,31.33
2022-11-29T01:10:08.283Z,27.27
2022-11-29T01:13:11.785Z,28.00
2022-11-29T01:16:15.750Z,34.85
2022-11-29T01:19:19.192Z,30.12
2022-11-29T01:22:23.206Z,31.87
2022-11-29T01:25:26.481Z,30.58
2022-11-29T01:28:30.546Z,33.15
2022-11-29T01:34:41.399Z,31.40
2022-11-29T01:37:44.788Z,26.15
2022-11-29T01:41:06.273Z,25.62
2022-11-29T01:44:12.863Z,28.83
2022-11-29T01:47:17.098Z,28.00
2022-11-29T01:50:20.932Z,28.83
2022-11-29T01:53:23.921Z,25.58
2022-11-29T01:56:28.858Z,25.17
2022-11-29T01:59:31.995Z,26.58
2022-11-29T02:02:41.044Z,25.88
2022-11-29T02:05:51.914Z,24.10
2022-11-29T02:08:54.896Z,23.42
2022-11-29T02:12:15.694Z,25.37
2022-11-29T02:15:26.132Z,20.40
2022-11-29T02:18:44.395Z,26.92
2022-11-29T02:21:52.626Z,18.58
2022-11-29T02:25:10.125Z,23.17
2022-11-29T02:28:15.908Z,20.62
2022-11-29T02:31:38.074Z,21.40
2022-11-29T02:34:53.133Z,24.63
2022-11-29T02:38:15.179Z,20.17
2022-11-29T02:41:20.957Z,24.85
2022-11-29T02:44:52.957Z,18.35
2022-11-29T02:48:07.318Z,20.58
2022-11-29T02:51:16.620Z,19.30
2022-11-29T02:54:36.824Z,20.33
2022-11-29T02:57:51.067Z,19.27
2022-11-29T03:01:03.693Z,15.95
2022-11-29T03:04:32.152Z,17.55
2022-11-29T03:08:16.719Z,17.35
2022-11-29T03:12:02.054Z,21.15
2022-11-29T03:15:19.771Z,18.98
2022-11-29T03:18:44.305Z,21.58
2022-11-29T03:22:12.476Z,24.40
2022-11-29T03:25:26.981Z,24.33
2022-11-29T03:28:54.526Z,22.85
2022-11-29T03:32:03.965Z,21.87
2022-11-29T03:35:40.475Z,18.98
2022-11-29T03:38:46.401Z,17.50
2022-11-29T03:45:25.473Z,20.83
2022-11-29T03:48:35.630Z,19.40
2022-11-29T03:52:10.848Z,20.73
2022-11-29T03:55:47.113Z,18.92
2022-11-29T03:59:18.684Z,16.48
2022-11-29T04:02:47.208Z,19.35
2022-11-29T04:06:21.474Z,21.27
2022-11-29T04:09:36.578Z,21.75
2022-11-29T04:13:17.519Z,22.40
2022-11-29T04:16:45.234Z,23.92
2022-11-29T04:20:11.137Z,25.75
2022-11-29T04:23:51.471Z,26.98
2022-11-29T04:27:13.657Z,24.33
2022-11-29T04:30:24.381Z,23.90
2022-11-29T04:33:49.813Z,22.52
2022-11-29T04:37:15.086Z,21.30
2022-11-29T04:40:28.059Z,18.12
2022-11-29T04:44:07.757Z,23.95
2022-11-29T04:47:41.205Z,27.02
2022-11-29T04:50:54.114Z,29.10
2022-11-29T04:54:05.431Z,27.37
2022-11-29T04:57:38.067Z,26.98
2022-11-29T05:01:01.442Z,25.42
2022-11-29T05:04:19.638Z,22.02
2022-11-29T05:08:00.211Z,26.35
2022-11-29T05:11:15.121Z,24.92
2022-11-29T05:14:29.269Z,22.75
2022-11-29T05:17:51.300Z,22.48
2022-11-29T05:21:07.160Z,24.33
2022-11-29T05:24:41.867Z,19.58
2022-11-29T05:28:20.889Z,20.27
2022-11-29T05:31:23.853Z,20.12
2022-11-29T05:34:46.816Z,16.58
2022-11-29T05:37:54.243Z,15.98
2022-11-29T05:41:15.784Z,15.05
2022-11-29T05:44:28.754Z,16.50
2022-11-29T05:47:49.489Z,13.35
2022-11-29T05:51:10.061Z,15.77
2022-11-29T05:54:30.071Z,14.73
2022-11-29T05:57:59.627Z,13.30
2022-11-29T06:01:40.585Z,13.07
2022-11-29T06:05:13.723Z,13.68
2022-11-29T06:08:35.760Z,16.55
2022-11-29T06:11:45.948Z,13.98
2022-11-29T06:15:17.374Z,16.70
2022-11-29T06:19:06.820Z,16.80
2022-11-29T06:22:21.432Z,18.02
2022-11-29T06:25:24.509Z,17.23
2022-11-29T06:29:09.202Z,16.37
2022-11-29T06:32:45.389Z,19.48
2022-11-29T06:35:57.784Z,24.70
2022-11-29T06:39:00.941Z,23.35
2022-11-29T06:42:04.444Z,21.98
2022-11-29T06:45:08.392Z,22.40
2022-11-29T06:48:15.802Z,19.50
2022-11-29T06:51:19.161Z,20.95
2022-11-29T06:54:35.578Z,20.70
2022-11-29T06:57:57.520Z,19.55
2022-11-29T07:01:07.257Z,23.30
2022-11-29T07:04:22.704Z,23.20
2022-11-29T07:07:25.921Z,26.63
2022-11-29T07:10:32.513Z,21.92
2022-11-29T07:13:35.764Z,33.10
2022-11-29T07:16:57.021Z,25.30
2022-11-29T07:20:20.743Z,35.70
2022-11-29T07:23:39.316Z,33.15
2022-11-29T07:26:55.150Z,43.38
2022-11-29T07:30:05.518Z,27.98
2022-11-29T07:33:27.763Z,27.65
2022-11-29T07:36:52.564Z,35.60
2022-11-29T07:40:14.699Z,31.77
2022-11-29T07:43:21.647Z,28.87
2022-11-29T07:46:25.724Z,45.60
2022-11-29T07:49:29.013Z,46.35
2022-11-29T07:52:31.958Z,42.03
2022-11-29T07:55:36.273Z,33.97
2022-11-29T07:58:39.560Z,31.15
2022-11-29T08:01:42.939Z,27.70
2022-11-29T08:04:46.494Z,31.25
2022-11-29T08:07:50.047Z,30.17
2022-11-29T08:10:53.764Z,33.17
2022-11-29T08:13:58.278Z,29.83
2022-11-29T08:17:01.438Z,26.12
2022-11-29T08:20:05.192Z,27.52
2022-11-29T08:23:11.413Z,30.45
2022-11-29T08:26:15.519Z,28.30
2022-11-29T08:29:20.163Z,26.27
2022-11-29T08:32:23.153Z,23.27
2022-11-29T08:35:27.479Z,24.23
2022-11-29T08:38:30.500Z,26.33
2022-11-29T08:41:33.765Z,29.50
2022-11-29T08:44:36.837Z,26.02
2022-11-29T08:47:42.433Z,26.55
2022-11-29T08:53:52.104Z,24.63
2022-11-29T09:00:19.150Z,25.50
2022-11-29T09:03:40.812Z,26.08
2022-11-29T09:06:44.585Z,24.12
2022-11-29T09:09:48.493Z,25.52
2022-11-29T09:12:51.865Z,26.40
2022-11-29T09:15:55.288Z,26.70
2022-11-29T09:18:59.076Z,26.00
2022-11-29T09:22:02.003Z,30.12
2022-11-29T09:25:06.102Z,30.37
2022-11-29T09:28:09.102Z,27.75
2022-11-29T09:31:15.600Z,28.92
2022-11-29T09:34:18.890Z,28.80
2022-11-29T09:37:23.709Z,26.55
2022-11-29T09:40:34.052Z,27.83
2022-11-29T09:44:22.339Z,27.23
2022-11-29T09:47:44.055Z,29.58
2022-11-29T09:50:50.271Z,28.38
2022-11-29T09:53:57.095Z,24.17
2022-11-29T09:57:00.447Z,28.33
2022-11-29T10:00:06.797Z,29.37
2022-11-29T10:03:33.850Z,26.58
2022-11-29T10:06:39.664Z,25.77
2022-11-29T10:09:56.350Z,29.25
2022-11-29T10:13:05.975Z,31.95
2022-11-29T10:16:19.793Z,28.42
2022-11-29T10:19:33.522Z,26.20
2022-11-29T10:22:53.409Z,28.65
2022-11-29T10:25:58.253Z,25.75
2022-11-29T10:29:01.370Z,33.25
2022-11-29T10:32:12.029Z,26.62
2022-11-29T10:35:18.671Z,29.42
2022-11-29T10:38:36.796Z,19.45
2022-11-29T10:41:40.037Z,19.50
2022-11-29T10:44:43.055Z,19.85
2022-11-29T10:47:47.886Z,22.37
2022-11-29T10:50:52.599Z,16.07
2022-11-29T10:53:56.582Z,16.65
2022-11-29T10:57:00.823Z,17.90
2022-11-29T11:00:10.240Z,14.23
2022-11-29T11:03:43.725Z,30.62
2022-11-29T11:06:58.376Z,14.82
2022-11-29T11:10:02.984Z,16.85
2022-11-29T11:13:20.489Z,13.55
2022-11-29T11:16:26.780Z,15.27
2022-11-29T11:19:34.219Z,13.85
2022-11-29T11:22:40.006Z,16.62
2022-11-29T11:25:43.276Z,16.10
2022-11-29T11:29:00.979Z,15.07
2022-11-29T11:32:05.615Z,13.93
2022-11-29T11:35:22.279Z,12.73
2022-11-29T11:38:25.455Z,12.98
2022-11-29T11:41:49.725Z,12.90
2022-11-29T11:44:53.733Z,13.80
2022-11-29T11:48:10.873Z,16.55
2022-11-29T11:51:23.716Z,14.82
2022-11-29T11:54:27.197Z,17.25
2022-11-29T11:57:31.734Z,12.07
2022-11-29T12:01:08.649Z,12.63
2022-11-29T12:04:20.850Z,12.60
2022-11-29T12:08:06.747Z,13.98
2022-11-29T12:11:07.969Z,57.35
2022-11-29T12:14:21.675Z,16.80
2022-11-29T12:17:42.208Z,13.98
2022-11-29T12:20:54.835Z,12.82
2022-11-29T12:24:12.059Z,12.45
2022-11-29T12:27:16.239Z,14.55
2022-11-29T12:30:19.904Z,12.90
2022-11-29T12:33:44.680Z,14.82
2022-11-29T12:37:02.357Z,13.33
2022-11-29T12:40:28.524Z,14.07
2022-11-29T12:43:51.606Z,12.30
2022-11-29T12:47:34.771Z,12.07
2022-11-29T12:50:33.399Z,12.40
2022-11-29T12:53:45.453Z,16.10
2022-11-29T12:57:10.429Z,15.35
2022-11-29T13:00:16.597Z,12.75
2022-11-29T13:03:27.542Z,12.07
2022-11-29T13:06:42.815Z,10.98
2022-11-29T13:09:50.210Z,11.27
2022-11-29T13:12:56.768Z,12.45
2022-11-29T13:16:30.643Z,11.30
2022-11-29T13:19:54.188Z,12.98
2022-11-29T13:23:52.902Z,14.90
2022-11-29T13:26:52.922Z,10.15
2022-11-29T13:29:58.411Z,12.15
2022-11-29T13:36:18.941Z,14.85
2022-11-29T13:39:37.081Z,13.02
2022-11-29T13:43:04.142Z,11.40
2022-11-29T13:46:20.587Z,10.55
2022-11-29T13:50:03.814Z,14.35
2022-11-29T13:53:13.226Z,12.32
2022-11-29T13:56:43.239Z,13.73
2022-11-29T13:59:49.618Z,13.25
2022-11-29T14:02:54.796Z,12.18
2022-11-29T14:06:02.949Z,12.07
2022-11-29T14:09:27.436Z,12.90
2022-11-29T14:12:40.905Z,14.27
2022-11-29T14:15:44.096Z,14.15
2022-11-29T14:19:05.220Z,15.57
2022-11-29T14:22:20.106Z,19.05
2022-11-29T14:25:50.504Z,17.27
2022-11-29T14:28:48.313Z,18.62
2022-11-29T14:31:52.704Z,15.23
2022-11-29T14:35:11.002Z,27.35
2022-11-29T14:38:20.449Z,30.62
2022-11-29T14:41:39.159Z,21.98
2022-11-29T14:44:51.220Z,18.45
2022-11-29T14:47:54.378Z,18.37
2022-11-29T14:51:20.016Z,18.62
2022-11-29T14:54:22.995Z,12.20
2022-11-29T14:57:45.289Z,20.00
2022-11-29T15:00:48.037Z,17.95
2022-11-29T15:03:52.293Z,18.50
2022-11-29T15:06:56.077Z,23.05
2022-11-29T15:10:04.864Z,26.20
2022-11-29T15:13:12.565Z,29.63
2022-11-29T15:16:35.151Z,27.90
2022-11-29T15:20:04.341Z,27.58
2022-11-29T15:23:15.111Z,33.92
2022-11-29T15:26:21.998Z,37.17
2022-11-29T15:29:26.289Z,40.00
2022-11-29T15:32:32.693Z,35.33
2022-11-29T15:35:36.779Z,35.38
2022-11-29T15:38:48.984Z,31.50
2022-11-29T15:41:53.790Z,34.28
2022-11-29T15:44:57.638Z,39.85
2022-11-29T15:48:16.279Z,35.55
2022-11-29T15:51:30.112Z,32.42
2022-11-29T15:54:42.468Z,30.60
2022-11-29T15:57:48.892Z,32.85
2022-11-29T16:00:52.582Z,31.75
2022-11-29T16:03:57.335Z,28.70
2022-11-29T16:07:00.415Z,31.75
2022-11-29T16:10:07.983Z,39.65
2022-11-29T16:13:38.820Z,31.48
2022-11-29T16:16:44.488Z,24.15
2022-11-29T16:19:48.294Z,35.38
2022-11-29T16:23:12.240Z,37.03
2022-11-29T16:26:26.554Z,34.00
2022-11-29T16:29:38.898Z,36.72
2022-11-29T16:32:47.413Z,38.45
2022-11-29T16:36:08.456Z,30.80
2022-11-29T16:39:23.860Z,38.67
2022-11-29T16:42:31.656Z,45.83
2022-11-29T16:45:42.012Z,53.03
2022-11-29T16:48:45.833Z,40.45
2022-11-29T16:51:49.577Z,39.80
2022-11-29T16:54:55.980Z,37.60
2022-11-29T16:57:59.240Z,36.00
2022-11-29T17:01:20.159Z,26.80
2022-11-29T17:04:25.130Z,28.25
2022-11-29T17:07:33.029Z,46.15
2022-11-29T17:10:43.098Z,57.08
2022-11-29T17:14:41.845Z,62.78
2022-11-29T17:18:13.267Z,44.10
2022-11-29T17:21:25.700Z,46.60
2022-11-29T17:24:30.087Z,31.60
2022-11-29T17:27:33.460Z,32.42
2022-11-29T17:30:36.943Z,28.33
2022-11-29T17:33:40.715Z,36.60
2022-11-29T20:22:27.590Z,48.60
2022-11-29T20:25:31.866Z,45.35
2022-11-29T20:28:37.837Z,48.15
2022-11-29T20:31:49.156Z,46.67
2022-11-29T20:34:56.570Z,51.47
2022-11-29T20:38:36.496Z,47.88
2022-11-29T20:42:16.124Z,60.90
2022-11-29T20:45:24.725Z,59.42
2022-11-29T20:48:50.889Z,57.85
2022-11-29T20:52:04.038Z,60.25
2022-11-29T20:55:07.801Z,66.15
2022-11-29T20:58:12.514Z,64.95
2022-11-29T21:01:16.993Z,61.28
2022-11-29T21:04:23.574Z,63.80
2022-11-29T21:07:27.344Z,61.00
2022-11-29T21:10:31.140Z,52.33
2022-11-29T21:13:34.800Z,61.10
2022-11-29T21:16:39.071Z,62.15
2022-11-29T21:19:42.956Z,61.88
2022-11-29T21:23:03.178Z,57.93
2022-11-29T21:26:17.757Z,57.78
2022-11-29T21:29:23.410Z,70.75
2022-11-29T21:32:27.628Z,66.57
2022-11-29T21:35:30.923Z,66.50
2022-11-29T21:38:33.905Z,70.20
2022-11-29T21:41:37.326Z,63.53
2022-11-29T21:44:40.451Z,62.00
2022-11-29T21:47:44.629Z,60.72
2022-11-29T21:50:50.352Z,57.60
2022-11-29T21:53:53.766Z,52.83
2022-11-29T21:56:57.296Z,49.90
2022-11-29T22:00:00.816Z,53.15
2022-11-29T22:03:04.272Z,62.25
2022-11-29T22:06:18.771Z,61.90
2022-11-29T22:09:21.886Z,64.90
2022-11-29T22:12:34.085Z,64.22
2022-11-29T22:15:37.850Z,52.00
2022-11-29T22:18:41.386Z,57.97
2022-11-29T22:21:47.442Z,68.93
2022-11-29T22:24:50.835Z,56.65
2022-11-29T22:27:54.143Z,62.50
2022-11-29T22:31:09.289Z,52.10
2022-11-29T22:34:12.343Z,47.97
2022-11-29T22:37:15.801Z,58.97
2022-11-29T22:40:18.951Z,58.60
2022-11-29T22:43:22.357Z,54.47
2022-11-29T22:46:27.533Z,48.67
2022-11-29T22:49:33.205Z,58.03
2022-11-29T22:52:36.602Z,65.82
2022-11-29T22:55:39.989Z,56.65
2022-11-29T22:58:43.166Z,65.30
2022-11-29T23:01:48.137Z,56.35
2022-11-29T23:04:51.278Z,65.53
2022-11-29T23:07:55.550Z,59.53
2022-11-29T23:11:01.121Z,62.25
2022-11-29T23:14:05.538Z,62.40
2022-11-29T23:17:08.782Z,61.60
2022-11-29T23:20:12.868Z,60.58
2022-11-29T23:23:15.979Z,62.72
2022-11-29T23:26:25.149Z,42.70
2022-11-29T23:29:28.123Z,56.20
2022-11-29T23:32:31.196Z,44.78
2022-11-29T23:35:34.421Z,55.55
2022-11-29T23:38:38.177Z,47.40
2022-11-29T23:41:41.121Z,56.92
2022-11-29T23:44:45.568Z,50.53
2022-11-29T23:47:49.244Z,57.20
2022-11-29T23:50:52.449Z,59.00
2022-11-29T23:53:55.491Z,51.58
2022-11-29T23:56:59.560Z,50.75
